sensor_id;sensor_type;location;lat;lon;timestamp;P1;durP1;ratioP1;P2;durP2;ratioP2
46507;SDS011;32223;53.654;10.014;2023-02-01T00:00:09;21.08;;;4.70;;
46507;SDS011;32223;53.654;10.014;2023-02-01T00:02:36;24.10;;;3.58;;
46507;SDS011;32223;53.654;10.014;2023-02-01T00:05:05;20.73;;;3.85;;
46507;SDS011;32223;53.654;10.014;2023-02-01T00:07:31;15.18;;;2.85;;
46507;SDS011;32223;53.654;10.014;2023-02-01T00:09:56;16.65;;;2.88;;
46507;SDS011;32223;53.654;10.014;2023-02-01T00:12:22;14.23;;;2.53;;
46507;SDS011;32223;53.654;10.014;2023-02-01T00:14:47;13.38;;;3.63;;
46507;SDS011;32223;53.654;10.014;2023-02-01T00:17:13;13.48;;;3.40;;
46507;SDS011;32223;53.654;10.014;2023-02-01T00:19:39;20.10;;;3.78;;
46507;SDS011;32223;53.654;10.014;2023-02-01T00:22:04;17.75;;;3.03;;
46507;SDS011;32223;53.654;10.014;2023-02-01T00:24:30;17.63;;;4.78;;
46507;SDS011;32223;53.654;10.014;2023-02-01T00:26:55;21.33;;;5.90;;
46507;SDS011;32223;53.654;10.014;2023-02-01T00:29:21;31.95;;;4.70;;
46507;SDS011;32223;53.654;10.014;2023-02-01T00:31:49;22.92;;;7.78;;
46507;SDS011;32223;53.654;10.014;2023-02-01T00:34:16;26.27;;;5.22;;
46507;SDS011;32223;53.654;10.014;2023-02-01T00:36:42;23.00;;;4.25;;
46507;SDS011;32223;53.654;10.014;2023-02-01T00:39:09;15.48;;;4.60;;
46507;SDS011;32223;53.654;10.014;2023-02-01T00:41:34;18.20;;;4.18;;
46507;SDS011;32223;53.654;10.014;2023-02-01T00:44:00;18.33;;;3.88;;
46507;SDS011;32223;53.654;10.014;2023-02-01T00:46:27;26.25;;;5.95;;
46507;SDS011;32223;53.654;10.014;2023-02-01T00:48:53;21.50;;;4.40;;
46507;SDS011;32223;53.654;10.014;2023-02-01T00:51:20;27.15;;;4.40;;
46507;SDS011;32223;53.654;10.014;2023-02-01T00:53:47;19.67;;;3.60;;
46507;SDS011;32223;53.654;10.014;2023-02-01T00:56:13;18.05;;;4.07;;
46507;SDS011;32223;53.654;10.014;2023-02-01T00:58:39;21.00;;;4.93;;
46507;SDS011;32223;53.654;10.014;2023-02-01T01:01:10;26.98;;;5.38;;
46507;SDS011;32223;53.654;10.014;2023-02-01T01:03:40;30.02;;;4.90;;
46507;SDS011;32223;53.654;10.014;2023-02-01T01:06:11;21.13;;;3.95;;
46507;SDS011;32223;53.654;10.014;2023-02-01T01:08:39;24.70;;;5.80;;
46507;SDS011;32223;53.654;10.014;2023-02-01T01:11:06;35.60;;;6.65;;
46507;SDS011;32223;53.654;10.014;2023-02-01T01:13:42;25.92;;;5.18;;
46507;SDS011;32223;53.654;10.014;2023-02-01T01:16:11;34.42;;;7.13;;
46507;SDS011;32223;53.654;10.014;2023-02-01T01:18:37;26.10;;;5.22;;
46507;SDS011;32223;53.654;10.014;2023-02-01T01:21:05;24.95;;;5.60;;
46507;SDS011;32223;53.654;10.014;2023-02-01T01:23:33;31.17;;;5.90;;
46507;SDS011;32223;53.654;10.014;2023-02-01T01:26:00;30.80;;;4.78;;
46507;SDS011;32223;53.654;10.014;2023-02-01T01:28:25;43.00;;;5.38;;
46507;SDS011;32223;53.654;10.014;2023-02-01T01:30:51;18.30;;;5.32;;
46507;SDS011;32223;53.654;10.014;2023-02-01T01:33:17;27.27;;;5.57;;
46507;SDS011;32223;53.654;10.014;2023-02-01T01:35:42;19.40;;;4.88;;
46507;SDS011;32223;53.654;10.014;2023-02-01T01:38:09;26.60;;;5.35;;
46507;SDS011;32223;53.654;10.014;2023-02-01T01:40:36;26.10;;;6.28;;
46507;SDS011;32223;53.654;10.014;2023-02-01T01:43:02;19.38;;;4.32;;
46507;SDS011;32223;53.654;10.014;2023-02-01T01:45:34;32.88;;;5.03;;
46507;SDS011;32223;53.654;10.014;2023-02-01T01:48:04;13.85;;;3.95;;
46507;SDS011;32223;53.654;10.014;2023-02-01T01:50:35;25.40;;;4.32;;
46507;SDS011;32223;53.654;10.014;2023-02-01T01:53:11;20.55;;;4.05;;
46507;SDS011;32223;53.654;10.014;2023-02-01T01:55:39;22.38;;;5.35;;
46507;SDS011;32223;53.654;10.014;2023-02-01T01:58:10;25.42;;;5.15;;
46507;SDS011;32223;53.654;10.014;2023-02-01T02:00:40;20.73;;;5.40;;
46507;SDS011;32223;53.654;10.014;2023-02-01T02:03:08;19.85;;;4.47;;
46507;SDS011;32223;53.654;10.014;2023-02-01T02:05:40;27.70;;;6.22;;
46507;SDS011;32223;53.654;10.014;2023-02-01T02:08:06;30.17;;;5.93;;
46507;SDS011;32223;53.654;10.014;2023-02-01T02:10:32;18.33;;;4.63;;
46507;SDS011;32223;53.654;10.014;2023-02-01T02:13:16;25.52;;;4.88;;
46507;SDS011;32223;53.654;10.014;2023-02-01T02:15:56;29.30;;;5.43;;
46507;SDS011;32223;53.654;10.014;2023-02-01T02:34:13;20.45;;;5.68;;
46507;SDS011;32223;53.654;10.014;2023-02-01T02:39:45;21.25;;;4.00;;
46507;SDS011;32223;53.654;10.014;2023-02-01T02:45:26;25.33;;;5.32;;
46507;SDS011;32223;53.654;10.014;2023-02-01T02:48:25;18.60;;;4.30;;
46507;SDS011;32223;53.654;10.014;2023-02-01T02:51:07;17.83;;;4.90;;
46507;SDS011;32223;53.654;10.014;2023-02-01T02:54:05;31.03;;;4.57;;
46507;SDS011;32223;53.654;10.014;2023-02-01T02:56:58;22.13;;;5.20;;
46507;SDS011;32223;53.654;10.014;2023-02-01T02:59:45;18.10;;;5.10;;
46507;SDS011;32223;53.654;10.014;2023-02-01T03:02:31;23.70;;;5.00;;
46507;SDS011;32223;53.654;10.014;2023-02-01T03:05:16;24.42;;;5.25;;
46507;SDS011;32223;53.654;10.014;2023-02-01T03:10:36;29.60;;;5.47;;
46507;SDS011;32223;53.654;10.014;2023-02-01T03:13:11;18.52;;;4.93;;
46507;SDS011;32223;53.654;10.014;2023-02-01T03:18:18;18.00;;;3.95;;
46507;SDS011;32223;53.654;10.014;2023-02-01T03:20:56;16.77;;;4.35;;
46507;SDS011;32223;53.654;10.014;2023-02-01T03:23:29;19.48;;;5.43;;
46507;SDS011;32223;53.654;10.014;2023-02-01T03:25:58;20.98;;;5.85;;
46507;SDS011;32223;53.654;10.014;2023-02-01T03:28:27;18.65;;;3.83;;
46507;SDS011;32223;53.654;10.014;2023-02-01T03:30:54;20.83;;;4.85;;
46507;SDS011;32223;53.654;10.014;2023-02-01T03:33:21;24.80;;;4.68;;
46507;SDS011;32223;53.654;10.014;2023-02-01T03:36:00;27.25;;;4.57;;
46507;SDS011;32223;53.654;10.014;2023-02-01T03:41:41;21.65;;;4.93;;
46507;SDS011;32223;53.654;10.014;2023-02-01T03:46:42;24.60;;;3.53;;
46507;SDS011;32223;53.654;10.014;2023-02-01T03:49:19;11.88;;;3.33;;
46507;SDS011;32223;53.654;10.014;2023-02-01T03:51:54;18.42;;;4.13;;
46507;SDS011;32223;53.654;10.014;2023-02-01T03:54:22;36.47;;;4.45;;
46507;SDS011;32223;53.654;10.014;2023-02-01T03:56:48;16.02;;;3.95;;
46507;SDS011;32223;53.654;10.014;2023-02-01T03:59:17;22.88;;;4.25;;
46507;SDS011;32223;53.654;10.014;2023-02-01T04:01:43;17.02;;;2.95;;
46507;SDS011;32223;53.654;10.014;2023-02-01T04:04:09;22.23;;;3.50;;
46507;SDS011;32223;53.654;10.014;2023-02-01T04:06:34;19.52;;;3.63;;
46507;SDS011;32223;53.654;10.014;2023-02-01T04:09:00;21.23;;;4.57;;
46507;SDS011;32223;53.654;10.014;2023-02-01T04:11:25;17.70;;;3.58;;
46507;SDS011;32223;53.654;10.014;2023-02-01T04:13:52;18.48;;;4.00;;
46507;SDS011;32223;53.654;10.014;2023-02-01T04:16:18;19.30;;;4.18;;
46507;SDS011;32223;53.654;10.014;2023-02-01T04:18:43;18.83;;;4.50;;
46507;SDS011;32223;53.654;10.014;2023-02-01T04:21:09;17.27;;;4.03;;
46507;SDS011;32223;53.654;10.014;2023-02-01T04:23:35;8.38;;;2.85;;
46507;SDS011;32223;53.654;10.014;2023-02-01T04:26:01;16.27;;;3.25;;
46507;SDS011;32223;53.654;10.014;2023-02-01T04:28:29;13.32;;;3.88;;
46507;SDS011;32223;53.654;10.014;2023-02-01T04:30:54;15.85;;;4.30;;
46507;SDS011;32223;53.654;10.014;2023-02-01T04:33:20;20.17;;;2.80;;
46507;SDS011;32223;53.654;10.014;2023-02-01T04:35:47;13.32;;;4.22;;
46507;SDS011;32223;53.654;10.014;2023-02-01T04:38:12;19.67;;;4.53;;
46507;SDS011;32223;53.654;10.014;2023-02-01T04:40:38;15.95;;;3.45;;
46507;SDS011;32223;53.654;10.014;2023-02-01T04:43:04;14.80;;;3.80;;
46507;SDS011;32223;53.654;10.014;2023-02-01T04:45:29;30.38;;;4.07;;
46507;SDS011;32223;53.654;10.014;2023-02-01T04:47:55;23.23;;;5.13;;
46507;SDS011;32223;53.654;10.014;2023-02-01T04:50:21;11.15;;;3.38;;
46507;SDS011;32223;53.654;10.014;2023-02-01T04:52:48;8.15;;;2.13;;
46507;SDS011;32223;53.654;10.014;2023-02-01T04:55:14;17.35;;;2.85;;
46507;SDS011;32223;53.654;10.014;2023-02-01T04:57:40;11.73;;;2.40;;
46507;SDS011;32223;53.654;10.014;2023-02-01T05:00:06;7.43;;;2.15;;
46507;SDS011;32223;53.654;10.014;2023-02-01T05:02:33;5.55;;;3.03;;
46507;SDS011;32223;53.654;10.014;2023-02-01T05:04:59;10.80;;;3.20;;
46507;SDS011;32223;53.654;10.014;2023-02-01T05:07:25;11.45;;;3.50;;
46507;SDS011;32223;53.654;10.014;2023-02-01T05:09:51;7.53;;;2.30;;
46507;SDS011;32223;53.654;10.014;2023-02-01T05:12:17;7.72;;;1.77;;
46507;SDS011;32223;53.654;10.014;2023-02-01T05:15:01;14.73;;;1.98;;
46507;SDS011;32223;53.654;10.014;2023-02-01T05:17:26;11.05;;;2.00;;
46507;SDS011;32223;53.654;10.014;2023-02-01T05:19:52;5.28;;;1.92;;
46507;SDS011;32223;53.654;10.014;2023-02-01T05:22:18;9.25;;;1.77;;
46507;SDS011;32223;53.654;10.014;2023-02-01T05:24:44;6.35;;;1.77;;
46507;SDS011;32223;53.654;10.014;2023-02-01T05:27:09;3.80;;;1.02;;
46507;SDS011;32223;53.654;10.014;2023-02-01T05:29:35;4.53;;;1.17;;
46507;SDS011;32223;53.654;10.014;2023-02-01T05:32:00;2.95;;;1.10;;
46507;SDS011;32223;53.654;10.014;2023-02-01T05:34:26;3.17;;;0.73;;
46507;SDS011;32223;53.654;10.014;2023-02-01T05:36:52;2.22;;;0.70;;
46507;SDS011;32223;53.654;10.014;2023-02-01T05:39:17;3.97;;;0.80;;
46507;SDS011;32223;53.654;10.014;2023-02-01T05:41:43;5.55;;;1.00;;
46507;SDS011;32223;53.654;10.014;2023-02-01T05:44:10;3.20;;;0.70;;
46507;SDS011;32223;53.654;10.014;2023-02-01T05:46:35;7.38;;;0.85;;
46507;SDS011;32223;53.654;10.014;2023-02-01T05:49:02;1.40;;;0.45;;
46507;SDS011;32223;53.654;10.014;2023-02-01T05:51:28;7.47;;;1.25;;
46507;SDS011;32223;53.654;10.014;2023-02-01T05:53:54;2.47;;;0.57;;
46507;SDS011;32223;53.654;10.014;2023-02-01T05:56:19;3.10;;;0.98;;
46507;SDS011;32223;53.654;10.014;2023-02-01T05:58:45;2.90;;;0.77;;
46507;SDS011;32223;53.654;10.014;2023-02-01T06:01:11;2.53;;;0.55;;
46507;SDS011;32223;53.654;10.014;2023-02-01T06:03:36;3.67;;;0.65;;
46507;SDS011;32223;53.654;10.014;2023-02-01T06:06:02;2.47;;;0.75;;
46507;SDS011;32223;53.654;10.014;2023-02-01T06:08:29;5.00;;;0.80;;
46507;SDS011;32223;53.654;10.014;2023-02-01T06:10:58;2.92;;;0.73;;
46507;SDS011;32223;53.654;10.014;2023-02-01T06:13:24;7.00;;;1.60;;
46507;SDS011;32223;53.654;10.014;2023-02-01T06:15:50;3.47;;;0.85;;
46507;SDS011;32223;53.654;10.014;2023-02-01T06:18:16;4.47;;;0.50;;
46507;SDS011;32223;53.654;10.014;2023-02-01T06:20:41;7.28;;;0.80;;
46507;SDS011;32223;53.654;10.014;2023-02-01T06:23:07;5.53;;;1.10;;
46507;SDS011;32223;53.654;10.014;2023-02-01T06:25:33;4.85;;;1.23;;
46507;SDS011;32223;53.654;10.014;2023-02-01T06:28:01;5.05;;;1.05;;
46507;SDS011;32223;53.654;10.014;2023-02-01T06:30:30;5.15;;;0.70;;
46507;SDS011;32223;53.654;10.014;2023-02-01T06:32:56;5.55;;;1.70;;
46507;SDS011;32223;53.654;10.014;2023-02-01T06:35:22;3.72;;;0.80;;
46507;SDS011;32223;53.654;10.014;2023-02-01T06:37:47;5.95;;;2.10;;
46507;SDS011;32223;53.654;10.014;2023-02-01T06:40:13;3.35;;;1.25;;
46507;SDS011;32223;53.654;10.014;2023-02-01T06:42:39;6.82;;;1.38;;
46507;SDS011;32223;53.654;10.014;2023-02-01T06:45:04;9.48;;;1.77;;
46507;SDS011;32223;53.654;10.014;2023-02-01T06:47:32;18.23;;;3.50;;
46507;SDS011;32223;53.654;10.014;2023-02-01T06:49:57;9.77;;;2.13;;
46507;SDS011;32223;53.654;10.014;2023-02-01T06:52:23;8.23;;;1.98;;
46507;SDS011;32223;53.654;10.014;2023-02-01T06:54:48;8.55;;;1.83;;
46507;SDS011;32223;53.654;10.014;2023-02-01T06:57:14;6.70;;;2.97;;
46507;SDS011;32223;53.654;10.014;2023-02-01T06:59:40;11.98;;;2.30;;
46507;SDS011;32223;53.654;10.014;2023-02-01T07:02:05;8.45;;;2.08;;
46507;SDS011;32223;53.654;10.014;2023-02-01T07:04:34;13.95;;;2.50;;
46507;SDS011;32223;53.654;10.014;2023-02-01T07:06:59;11.27;;;2.65;;
46507;SDS011;32223;53.654;10.014;2023-02-01T07:09:25;18.58;;;3.38;;
46507;SDS011;32223;53.654;10.014;2023-02-01T07:11:50;14.00;;;3.13;;
46507;SDS011;32223;53.654;10.014;2023-02-01T07:14:16;13.50;;;2.67;;
46507;SDS011;32223;53.654;10.014;2023-02-01T07:16:42;17.20;;;4.35;;
46507;SDS011;32223;53.654;10.014;2023-02-01T07:19:07;11.30;;;2.45;;
46507;SDS011;32223;53.654;10.014;2023-02-01T07:21:33;21.88;;;3.60;;
46507;SDS011;32223;53.654;10.014;2023-02-01T07:23:58;15.77;;;3.85;;
46507;SDS011;32223;53.654;10.014;2023-02-01T07:26:24;17.35;;;5.00;;
46507;SDS011;32223;53.654;10.014;2023-02-01T07:28:50;20.95;;;4.63;;
46507;SDS011;32223;53.654;10.014;2023-02-01T07:31:17;25.83;;;5.55;;
46507;SDS011;32223;53.654;10.014;2023-02-01T07:33:45;16.25;;;3.85;;
46507;SDS011;32223;53.654;10.014;2023-02-01T07:36:13;23.85;;;5.18;;
46507;SDS011;32223;53.654;10.014;2023-02-01T07:38:40;14.80;;;3.55;;
46507;SDS011;32223;53.654;10.014;2023-02-01T07:41:06;16.83;;;3.40;;
46507;SDS011;32223;53.654;10.014;2023-02-01T07:43:33;19.92;;;4.15;;
46507;SDS011;32223;53.654;10.014;2023-02-01T07:45:59;11.30;;;3.83;;
46507;SDS011;32223;53.654;10.014;2023-02-01T07:48:26;12.55;;;2.42;;
46507;SDS011;32223;53.654;10.014;2023-02-01T07:50:59;19.35;;;3.45;;
46507;SDS011;32223;53.654;10.014;2023-02-01T07:53:33;17.05;;;3.95;;
46507;SDS011;32223;53.654;10.014;2023-02-01T07:55:59;10.68;;;3.20;;
46507;SDS011;32223;53.654;10.014;2023-02-01T07:58:25;21.80;;;3.72;;
46507;SDS011;32223;53.654;10.014;2023-02-01T08:00:51;23.92;;;3.63;;
46507;SDS011;32223;53.654;10.014;2023-02-01T08:03:36;21.10;;;4.00;;
46507;SDS011;32223;53.654;10.014;2023-02-01T08:06:02;25.92;;;3.95;;
46507;SDS011;32223;53.654;10.014;2023-02-01T08:08:28;19.92;;;4.00;;
46507;SDS011;32223;53.654;10.014;2023-02-01T08:10:57;20.08;;;4.35;;
46507;SDS011;32223;53.654;10.014;2023-02-01T08:13:23;18.27;;;3.33;;
46507;SDS011;32223;53.654;10.014;2023-02-01T08:15:49;25.88;;;4.32;;
46507;SDS011;32223;53.654;10.014;2023-02-01T08:18:15;20.98;;;5.53;;
46507;SDS011;32223;53.654;10.014;2023-02-01T08:20:42;24.95;;;4.93;;
46507;SDS011;32223;53.654;10.014;2023-02-01T08:23:10;16.23;;;4.28;;
46507;SDS011;32223;53.654;10.014;2023-02-01T08:25:36;23.08;;;4.40;;
46507;SDS011;32223;53.654;10.014;2023-02-01T08:28:03;25.30;;;5.10;;
46507;SDS011;32223;53.654;10.014;2023-02-01T08:30:29;29.02;;;4.65;;
46507;SDS011;32223;53.654;10.014;2023-02-01T08:32:55;30.67;;;4.43;;
46507;SDS011;32223;53.654;10.014;2023-02-01T08:35:20;16.02;;;2.72;;
46507;SDS011;32223;53.654;10.014;2023-02-01T08:37:46;19.65;;;3.75;;
46507;SDS011;32223;53.654;10.014;2023-02-01T08:40:11;20.27;;;3.05;;
46507;SDS011;32223;53.654;10.014;2023-02-01T08:42:38;19.70;;;5.00;;
46507;SDS011;32223;53.654;10.014;2023-02-01T08:45:26;16.67;;;3.42;;
46507;SDS011;32223;53.654;10.014;2023-02-01T08:47:55;11.25;;;2.25;;
46507;SDS011;32223;53.654;10.014;2023-02-01T08:50:21;25.27;;;4.07;;
46507;SDS011;32223;53.654;10.014;2023-02-01T08:52:48;11.23;;;2.25;;
46507;SDS011;32223;53.654;10.014;2023-02-01T08:55:14;13.10;;;2.10;;
46507;SDS011;32223;53.654;10.014;2023-02-01T08:57:40;14.60;;;2.42;;
46507;SDS011;32223;53.654;10.014;2023-02-01T09:00:07;7.43;;;2.20;;
46507;SDS011;32223;53.654;10.014;2023-02-01T09:02:35;10.32;;;3.45;;
46507;SDS011;32223;53.654;10.014;2023-02-01T09:05:01;13.55;;;2.75;;
46507;SDS011;32223;53.654;10.014;2023-02-01T09:07:27;18.70;;;4.30;;
46507;SDS011;32223;53.654;10.014;2023-02-01T09:09:53;11.82;;;3.22;;
46507;SDS011;32223;53.654;10.014;2023-02-01T09:12:21;17.02;;;3.10;;
46507;SDS011;32223;53.654;10.014;2023-02-01T09:14:47;16.27;;;2.92;;
46507;SDS011;32223;53.654;10.014;2023-02-01T09:17:13;18.75;;;3.50;;
46507;SDS011;32223;53.654;10.014;2023-02-01T09:19:39;22.92;;;4.80;;
46507;SDS011;32223;53.654;10.014;2023-02-01T09:22:05;17.20;;;3.92;;
46507;SDS011;32223;53.654;10.014;2023-02-01T09:24:30;16.25;;;3.35;;
46507;SDS011;32223;53.654;10.014;2023-02-01T09:26:56;17.30;;;3.55;;
46507;SDS011;32223;53.654;10.014;2023-02-01T09:29:21;9.82;;;3.25;;
46507;SDS011;32223;53.654;10.014;2023-02-01T09:31:47;22.13;;;4.10;;
46507;SDS011;32223;53.654;10.014;2023-02-01T09:34:13;18.83;;;4.57;;
46507;SDS011;32223;53.654;10.014;2023-02-01T09:36:39;16.90;;;3.55;;
46507;SDS011;32223;53.654;10.014;2023-02-01T09:39:04;23.88;;;3.65;;
46507;SDS011;32223;53.654;10.014;2023-02-01T09:44:14;16.65;;;3.45;;
46507;SDS011;32223;53.654;10.014;2023-02-01T09:46:43;17.02;;;3.80;;
46507;SDS011;32223;53.654;10.014;2023-02-01T09:49:21;19.25;;;5.05;;
46507;SDS011;32223;53.654;10.014;2023-02-01T09:51:52;13.55;;;2.97;;
46507;SDS011;32223;53.654;10.014;2023-02-01T09:54:27;19.92;;;4.13;;
46507;SDS011;32223;53.654;10.014;2023-02-01T09:57:06;18.45;;;3.13;;
46507;SDS011;32223;53.654;10.014;2023-02-01T09:59:39;23.83;;;4.35;;
46507;SDS011;32223;53.654;10.014;2023-02-01T10:02:13;20.20;;;4.15;;
46507;SDS011;32223;53.654;10.014;2023-02-01T10:04:42;17.25;;;4.80;;
46507;SDS011;32223;53.654;10.014;2023-02-01T10:14:54;15.90;;;3.78;;
46507;SDS011;32223;53.654;10.014;2023-02-01T10:17:58;15.65;;;3.45;;
46507;SDS011;32223;53.654;10.014;2023-02-01T10:20:51;21.25;;;4.75;;
46507;SDS011;32223;53.654;10.014;2023-02-01T10:23:32;18.23;;;3.20;;
46507;SDS011;32223;53.654;10.014;2023-02-01T10:26:21;13.25;;;4.10;;
46507;SDS011;32223;53.654;10.014;2023-02-01T10:28:52;16.88;;;4.57;;
46507;SDS011;32223;53.654;10.014;2023-02-01T10:31:28;22.92;;;4.57;;
46507;SDS011;32223;53.654;10.014;2023-02-01T10:33:59;16.83;;;4.20;;
46507;SDS011;32223;53.654;10.014;2023-02-01T10:36:36;19.92;;;4.15;;
46507;SDS011;32223;53.654;10.014;2023-02-01T10:39:06;20.98;;;4.82;;
46507;SDS011;32223;53.654;10.014;2023-02-01T10:41:37;23.35;;;5.38;;
46507;SDS011;32223;53.654;10.014;2023-02-01T10:44:12;17.52;;;4.15;;
46507;SDS011;32223;53.654;10.014;2023-02-01T10:46:40;22.35;;;3.80;;
46507;SDS011;32223;53.654;10.014;2023-02-01T10:49:08;32.45;;;7.22;;
46507;SDS011;32223;53.654;10.014;2023-02-01T10:51:49;18.60;;;5.03;;
46507;SDS011;32223;53.654;10.014;2023-02-01T10:54:22;17.67;;;4.80;;
46507;SDS011;32223;53.654;10.014;2023-02-01T10:56:58;20.52;;;3.22;;
46507;SDS011;32223;53.654;10.014;2023-02-01T10:59:25;21.40;;;3.90;;
46507;SDS011;32223;53.654;10.014;2023-02-01T11:02:00;16.73;;;2.78;;
46507;SDS011;32223;53.654;10.014;2023-02-01T11:04:32;17.48;;;3.88;;
46507;SDS011;32223;53.654;10.014;2023-02-01T11:09:51;15.55;;;3.35;;
46507;SDS011;32223;53.654;10.014;2023-02-01T11:15:21;16.95;;;3.70;;
46507;SDS011;32223;53.654;10.014;2023-02-01T11:17:47;28.10;;;5.03;;
46507;SDS011;32223;53.654;10.014;2023-02-01T11:22:57;17.20;;;2.58;;
46507;SDS011;32223;53.654;10.014;2023-02-01T11:25:23;21.65;;;3.22;;
46507;SDS011;32223;53.654;10.014;2023-02-01T11:27:50;15.38;;;4.65;;
46507;SDS011;32223;53.654;10.014;2023-02-01T11:33:01;13.55;;;4.03;;
46507;SDS011;32223;53.654;10.014;2023-02-01T11:35:29;19.40;;;3.80;;
46507;SDS011;32223;53.654;10.014;2023-02-01T11:37:57;24.05;;;4.80;;
46507;SDS011;32223;53.654;10.014;2023-02-01T11:40:37;11.77;;;3.47;;
46507;SDS011;32223;53.654;10.014;2023-02-01T11:45:34;17.30;;;3.95;;
46507;SDS011;32223;53.654;10.014;2023-02-01T11:48:02;15.25;;;3.47;;
46507;SDS011;32223;53.654;10.014;2023-02-01T11:50:50;16.63;;;3.17;;
46507;SDS011;32223;53.654;10.014;2023-02-01T12:23:09;15.63;;;2.83;;
46507;SDS011;32223;53.654;10.014;2023-02-01T12:36:43;10.43;;;1.50;;
46507;SDS011;32223;53.654;10.014;2023-02-01T12:39:57;9.68;;;3.25;;
46507;SDS011;32223;53.654;10.014;2023-02-01T12:42:57;8.93;;;2.78;;
46507;SDS011;32223;53.654;10.014;2023-02-01T12:45:44;6.60;;;0.80;;
46507;SDS011;32223;53.654;10.014;2023-02-01T12:50:57;3.92;;;1.15;;
46507;SDS011;32223;53.654;10.014;2023-02-01T12:53:33;4.53;;;1.13;;
46507;SDS011;32223;53.654;10.014;2023-02-01T12:56:05;3.63;;;1.40;;
46507;SDS011;32223;53.654;10.014;2023-02-01T13:04:32;1.05;;;0.50;;
46507;SDS011;32223;53.654;10.014;2023-02-01T13:07:18;6.78;;;0.68;;
46507;SDS011;32223;53.654;10.014;2023-02-01T13:09:53;2.53;;;0.45;;
46507;SDS011;32223;53.654;10.014;2023-02-01T13:12:23;3.33;;;0.80;;
46507;SDS011;32223;53.654;10.014;2023-02-01T13:15:01;2.70;;;0.52;;
46507;SDS011;32223;53.654;10.014;2023-02-01T13:17:51;1.85;;;0.65;;
46507;SDS011;32223;53.654;10.014;2023-02-01T13:20:24;2.80;;;0.68;;
46507;SDS011;32223;53.654;10.014;2023-02-01T13:22:59;2.60;;;0.63;;
46507;SDS011;32223;53.654;10.014;2023-02-01T13:25:49;4.38;;;0.73;;
46507;SDS011;32223;53.654;10.014;2023-02-01T13:28:18;1.10;;;0.35;;
46507;SDS011;32223;53.654;10.014;2023-02-01T13:30:52;2.85;;;0.65;;
46507;SDS011;32223;53.654;10.014;2023-02-01T13:33:47;3.97;;;2.03;;
46507;SDS011;32223;53.654;10.014;2023-02-01T13:42:18;5.05;;;0.60;;
46507;SDS011;32223;53.654;10.014;2023-02-01T13:44:51;2.70;;;0.90;;
46507;SDS011;32223;53.654;10.014;2023-02-01T13:47:31;3.20;;;0.68;;
46507;SDS011;32223;53.654;10.014;2023-02-01T13:53:02;4.20;;;1.38;;
46507;SDS011;32223;53.654;10.014;2023-02-01T13:55:38;2.83;;;0.85;;
46507;SDS011;32223;53.654;10.014;2023-02-01T13:58:15;10.73;;;1.05;;
46507;SDS011;32223;53.654;10.014;2023-02-01T14:00:47;5.13;;;0.82;;
46507;SDS011;32223;53.654;10.014;2023-02-01T14:03:22;3.25;;;0.70;;
46507;SDS011;32223;53.654;10.014;2023-02-01T14:06:16;5.70;;;1.75;;
46507;SDS011;32223;53.654;10.014;2023-02-01T14:21:57;4.93;;;1.83;;
46507;SDS011;32223;53.654;10.014;2023-02-01T14:24:35;2.85;;;0.88;;
46507;SDS011;32223;53.654;10.014;2023-02-01T14:27:06;9.05;;;2.10;;
46507;SDS011;32223;53.654;10.014;2023-02-01T14:29:44;7.07;;;2.05;;
46507;SDS011;32223;53.654;10.014;2023-02-01T14:32:23;6.28;;;1.92;;
46507;SDS011;32223;53.654;10.014;2023-02-01T14:34:52;4.18;;;1.35;;
46507;SDS011;32223;53.654;10.014;2023-02-01T14:47:46;6.57;;;1.55;;
46507;SDS011;32223;53.654;10.014;2023-02-01T14:55:44;6.47;;;1.35;;
46507;SDS011;32223;53.654;10.014;2023-02-01T14:58:18;12.70;;;1.83;;
46507;SDS011;32223;53.654;10.014;2023-02-01T15:01:01;7.90;;;1.20;;
46507;SDS011;32223;53.654;10.014;2023-02-01T15:03:59;11.48;;;1.95;;
46507;SDS011;32223;53.654;10.014;2023-02-01T15:09:09;8.40;;;1.23;;
46507;SDS011;32223;53.654;10.014;2023-02-01T15:11:55;7.47;;;1.30;;
46507;SDS011;32223;53.654;10.014;2023-02-01T15:14:29;7.60;;;1.30;;
46507;SDS011;32223;53.654;10.014;2023-02-01T15:17:00;7.60;;;1.40;;
46507;SDS011;32223;53.654;10.014;2023-02-01T15:19:27;7.18;;;2.28;;
46507;SDS011;32223;53.654;10.014;2023-02-01T15:21:54;7.82;;;2.08;;
46507;SDS011;32223;53.654;10.014;2023-02-01T15:24:25;9.52;;;1.92;;
46507;SDS011;32223;53.654;10.014;2023-02-01T15:26:56;9.25;;;1.90;;
46507;SDS011;32223;53.654;10.014;2023-02-01T15:29:28;10.10;;;2.35;;
46507;SDS011;32223;53.654;10.014;2023-02-01T15:31:57;14.13;;;2.80;;
46507;SDS011;32223;53.654;10.014;2023-02-01T15:34:23;13.93;;;3.03;;
46507;SDS011;32223;53.654;10.014;2023-02-01T15:37:11;18.58;;;3.30;;
46507;SDS011;32223;53.654;10.014;2023-02-01T15:40:02;17.05;;;3.90;;
46507;SDS011;32223;53.654;10.014;2023-02-01T15:42:35;10.00;;;2.22;;
46507;SDS011;32223;53.654;10.014;2023-02-01T15:45:13;12.60;;;2.97;;
46507;SDS011;32223;53.654;10.014;2023-02-01T15:47:48;13.45;;;2.80;;
46507;SDS011;32223;53.654;10.014;2023-02-01T15:50:19;10.35;;;1.92;;
46507;SDS011;32223;53.654;10.014;2023-02-01T15:52:49;12.63;;;2.25;;
46507;SDS011;32223;53.654;10.014;2023-02-01T15:55:18;12.90;;;4.10;;
46507;SDS011;32223;53.654;10.014;2023-02-01T15:57:55;11.45;;;3.05;;
46507;SDS011;32223;53.654;10.014;2023-02-01T16:00:22;16.00;;;3.83;;
46507;SDS011;32223;53.654;10.014;2023-02-01T16:02:51;15.90;;;3.47;;
46507;SDS011;32223;53.654;10.014;2023-02-01T16:05:32;14.40;;;3.40;;
46507;SDS011;32223;53.654;10.014;2023-02-01T16:08:10;17.00;;;2.83;;
46507;SDS011;32223;53.654;10.014;2023-02-01T16:13:11;14.93;;;3.45;;
46507;SDS011;32223;53.654;10.014;2023-02-01T16:15:38;15.93;;;3.80;;
46507;SDS011;32223;53.654;10.014;2023-02-01T16:18:04;23.90;;;4.35;;
46507;SDS011;32223;53.654;10.014;2023-02-01T16:20:32;18.98;;;3.60;;
46507;SDS011;32223;53.654;10.014;2023-02-01T16:23:00;21.77;;;3.78;;
46507;SDS011;32223;53.654;10.014;2023-02-01T16:25:26;18.38;;;3.08;;
46507;SDS011;32223;53.654;10.014;2023-02-01T16:27:52;24.42;;;5.32;;
46507;SDS011;32223;53.654;10.014;2023-02-01T16:30:18;23.60;;;3.92;;
46507;SDS011;32223;53.654;10.014;2023-02-01T16:32:48;20.83;;;4.32;;
46507;SDS011;32223;53.654;10.014;2023-02-01T16:35:21;25.80;;;6.15;;
46507;SDS011;32223;53.654;10.014;2023-02-01T16:38:00;19.10;;;3.55;;
46507;SDS011;32223;53.654;10.014;2023-02-01T16:40:28;19.25;;;3.72;;
46507;SDS011;32223;53.654;10.014;2023-02-01T16:42:53;24.25;;;5.13;;
46507;SDS011;32223;53.654;10.014;2023-02-01T16:45:22;22.52;;;4.53;;
46507;SDS011;32223;53.654;10.014;2023-02-01T16:47:49;20.08;;;4.63;;
46507;SDS011;32223;53.654;10.014;2023-02-01T16:50:18;28.52;;;4.85;;
46507;SDS011;32223;53.654;10.014;2023-02-01T16:52:49;33.67;;;6.32;;
46507;SDS011;32223;53.654;10.014;2023-02-01T16:55:17;22.20;;;3.47;;
46507;SDS011;32223;53.654;10.014;2023-02-01T16:57:44;20.27;;;4.35;;
46507;SDS011;32223;53.654;10.014;2023-02-01T17:00:10;18.48;;;4.00;;
46507;SDS011;32223;53.654;10.014;2023-02-01T17:02:37;24.85;;;6.03;;
46507;SDS011;32223;53.654;10.014;2023-02-01T17:05:04;21.35;;;3.70;;
46507;SDS011;32223;53.654;10.014;2023-02-01T17:07:30;25.60;;;4.25;;
46507;SDS011;32223;53.654;10.014;2023-02-01T17:09:56;22.35;;;4.50;;
46507;SDS011;32223;53.654;10.014;2023-02-01T17:12:23;20.17;;;4.13;;